Time;durP1;ratioP1;P1;durP2;ratioP2;P2;SDS_P1;SDS_P2;PMS_P1;PMS_P2;Temp;Humidity;BMP_temperature;BMP_pressure;BME280_temperature;BME280_humidity;BME280_pressure;Samples;Min_cycle;Max_cycle;Signal;HPM_P1;HPM_P2
2024/02/17 00:01:47;;;;;;;12.98;10.45;;;;;;;;;;5042001;28;20443;-84
2024/02/17 00:04:14;;;;;;;14.40;10.90;;;;;;;;;;5025773;28;20076;-83
2024/02/17 00:06:41;;;;;;;17.35;11.63;;;;;;;;;;5025575;28;20817;-83
2024/02/17 00:09:08;;;;;;;15.25;11.13;;;;;;;;;;5042251;28;20053;-83
2024/02/17 00:11:35;;;;;;;17.50;12.10;;;;;;;;;;5056508;28;20042;-83
2024/02/17 00:14:02;;;;;;;14.38;11.02;;;;;;;;;;5042414;28;20064;-83
2024/02/17 00:16:29;;;;;;;15.23;10.50;;;;;;;;;;5068517;28;20069;-82
2024/02/17 00:18:56;;;;;;;14.75;11.10;;;;;;;;;;5058867;28;20097;-85
2024/02/17 00:21:22;;;;;;;16.00;10.63;;;;;;;;;;5042912;28;20059;-84
2024/02/17 00:23:49;;;;;;;16.52;10.15;;;;;;;;;;5056622;28;20131;-83
2024/02/17 00:26:17;;;;;;;13.65;9.43;;;;;;;;;;5058071;28;20044;-82
2024/02/17 00:28:44;;;;;;;17.05;10.57;;;;;;;;;;5025106;28;20044;-83
2024/02/17 00:31:11;;;;;;;14.23;10.18;;;;;;;;;;5023177;28;20049;-85
2024/02/17 00:33:38;;;;;;;13.60;9.45;;;;;;;;;;5048375;28;20391;-84
2024/02/17 00:36:05;;;;;;;13.02;9.45;;;;;;;;;;5063666;28;20057;-82
2024/02/17 00:38:32;;;;;;;13.57;9.23;;;;;;;;;;5040722;28;20053;-83
2024/02/17 00:41:01;;;;;;;11.57;8.30;;;;;;;;;;5042595;28;20083;-84
2024/02/17 00:43:28;;;;;;;16.67;8.30;;;;;;;;;;5029157;28;20079;-84
2024/02/17 00:45:56;;;;;;;12.98;8.52;;;;;;;;;;5042118;28;20049;-84
2024/02/17 00:48:25;;;;;;;9.77;7.57;;;;;;;;;;5036669;28;20045;-83
2024/02/17 00:50:52;;;;;;;11.20;8.23;;;;;;;;;;5038189;28;20055;-84
2024/02/17 00:53:30;;;;;;;13.32;8.18;;;;;;;;;;5054374;28;20057;-85
2024/02/17 00:55:57;;;;;;;8.88;7.40;;;;;;;;;;5037642;28;20060;-84
2024/02/17 00:58:23;;;;;;;10.02;7.35;;;;;;;;;;5056368;28;20060;-85
2024/02/17 01:00:50;;;;;;;12.65;7.30;;;;;;;;;;5057860;28;20061;-84
2024/02/17 01:03:17;;;;;;;11.07;7.57;;;;;;;;;;5038251;28;20073;-84
2024/02/17 01:05:44;;;;;;;9.60;6.65;;;;;;;;;;5061007;28;20048;-84
2024/02/17 01:08:10;;;;;;;10.85;6.93;;;;;;;;;;5038840;28;20056;-84
2024/02/17 01:10:37;;;;;;;6.85;5.82;;;;;;;;;;5039836;28;20048;-84
2024/02/17 01:13:09;;;;;;;9.45;5.45;;;;;;;;;;5025793;28;20422;-84
2024/02/17 01:15:36;;;;;;;8.75;5.05;;;;;;;;;;5041122;28;20498;-85
2024/02/17 01:18:02;;;;;;;6.38;4.82;;;;;;;;;;5057927;28;20418;-84
2024/02/17 01:20:29;;;;;;;4.82;3.83;;;;;;;;;;5045449;28;20067;-83
2024/02/17 01:22:56;;;;;;;5.75;4.03;;;;;;;;;;5044837;28;20049;-83
2024/02/17 01:25:24;;;;;;;8.15;4.40;;;;;;;;;;5027778;28;20053;-82
2024/02/17 01:27:52;;;;;;;4.43;3.80;;;;;;;;;;5041776;28;20102;-82
2024/02/17 01:30:19;;;;;;;6.07;4.25;;;;;;;;;;5043267;28;20052;-82
2024/02/17 01:32:45;;;;;;;7.15;3.67;;;;;;;;;;5025745;28;20059;-83
2024/02/17 01:35:13;;;;;;;3.90;3.30;;;;;;;;;;5043295;28;20055;-84
2024/02/17 01:37:40;;;;;;;5.43;3.65;;;;;;;;;;5024558;28;20057;-82
2024/02/17 01:40:07;;;;;;;5.82;3.03;;;;;;;;;;5044475;28;20060;-82
2024/02/17 01:42:34;;;;;;;5.30;3.47;;;;;;;;;;5042372;28;20052;-82
2024/02/17 01:45:03;;;;;;;4.53;3.55;;;;;;;;;;5027453;28;20048;-83
2024/02/17 01:47:30;;;;;;;3.72;3.00;;;;;;;;;;5042189;28;20060;-83
2024/02/17 01:49:57;;;;;;;4.10;3.17;;;;;;;;;;5061033;28;20048;-84
2024/02/17 01:52:24;;;;;;;3.83;2.83;;;;;;;;;;5043001;28;20052;-83
2024/02/17 01:54:50;;;;;;;3.35;2.97;;;;;;;;;;5061431;28;20186;-83
2024/02/17 01:57:17;;;;;;;4.57;3.20;;;;;;;;;;5035879;28;20053;-84
2024/02/17 01:59:44;;;;;;;4.50;2.72;;;;;;;;;;5044389;28;20053;-84
2024/02/17 02:02:10;;;;;;;5.25;2.78;;;;;;;;;;5043374;28;20060;-84
2024/02/17 02:04:37;;;;;;;6.00;3.00;;;;;;;;;;5028001;28;20049;-84
2024/02/17 02:07:05;;;;;;;3.33;2.78;;;;;;;;;;5043747;28;20053;-84
2024/02/17 02:09:31;;;;;;;3.40;2.90;;;;;;;;;;5043397;28;20156;-84
2024/02/17 02:11:58;;;;;;;5.20;3.50;;;;;;;;;;5058753;28;20048;-84
2024/02/17 02:14:25;;;;;;;3.17;2.75;;;;;;;;;;5059078;28;20052;-84
2024/02/17 02:16:52;;;;;;;2.47;2.10;;;;;;;;;;5045022;28;20110;-84
2024/02/17 02:19:19;;;;;;;3.17;2.38;;;;;;;;;;5044274;28;20060;-84
2024/02/17 02:21:46;;;;;;;4.72;2.70;;;;;;;;;;5044797;28;20057;-83
2024/02/17 02:24:13;;;;;;;4.07;3.42;;;;;;;;;;5028286;28;20049;-83
2024/02/17 02:26:39;;;;;;;3.70;2.97;;;;;;;;;;5038366;28;20053;-84
2024/02/17 02:29:06;;;;;;;7.13;3.63;;;;;;;;;;5026956;28;20098;-84
2024/02/17 02:31:33;;;;;;;3.95;3.33;;;;;;;;;;5043695;28;20052;-84
2024/02/17 02:34:00;;;;;;;4.72;3.70;;;;;;;;;;5043873;28;20051;-84
2024/02/17 02:36:26;;;;;;;4.00;3.30;;;;;;;;;;5027817;28;20669;-83
2024/02/17 02:38:54;;;;;;;5.05;3.78;;;;;;;;;;5044611;28;20116;-83
2024/02/17 02:41:21;;;;;;;6.95;4.32;;;;;;;;;;5042823;28;20056;-84
2024/02/17 02:43:49;;;;;;;6.47;4.35;;;;;;;;;;5043044;28;20049;-84
2024/02/17 02:46:15;;;;;;;7.60;4.90;;;;;;;;;;5026068;28;20057;-84
2024/02/17 02:48:42;;;;;;;6.65;4.75;;;;;;;;;;5041715;28;20055;-83
2024/02/17 02:51:09;;;;;;;6.80;5.05;;;;;;;;;;5025148;28;20049;-83
2024/02/17 02:53:36;;;;;;;8.30;5.63;;;;;;;;;;5041842;28;20049;-85
2024/02/17 02:56:03;;;;;;;9.63;6.07;;;;;;;;;;5042732;28;20103;-83
2024/02/17 02:58:29;;;;;;;8.55;6.00;;;;;;;;;;5024257;28;20049;-83
2024/02/17 03:00:56;;;;;;;11.23;6.93;;;;;;;;;;5041049;28;20053;-82
2024/02/17 03:03:23;;;;;;;9.40;6.60;;;;;;;;;;5044220;28;20048;-81
2024/02/17 03:05:50;;;;;;;10.27;6.53;;;;;;;;;;5045081;28;20485;-81
2024/02/17 03:08:17;;;;;;;11.20;7.25;;;;;;;;;;5045122;28;20107;-82
2024/02/17 03:10:44;;;;;;;10.10;6.72;;;;;;;;;;5025435;28;20099;-82
2024/02/17 03:13:30;;;;;;;10.02;6.68;;;;;;;;;;5044410;28;20068;-82
2024/02/17 03:15:57;;;;;;;11.93;8.13;;;;;;;;;;5061904;28;20053;-81
2024/02/17 03:18:24;;;;;;;12.93;8.38;;;;;;;;;;5044817;28;20691;-81
2024/02/17 03:20:51;;;;;;;15.20;8.00;;;;;;;;;;5040758;28;20145;-83
2024/02/17 03:23:17;;;;;;;15.52;9.63;;;;;;;;;;5054635;28;20052;-81
2024/02/17 03:25:44;;;;;;;17.58;9.43;;;;;;;;;;5043926;28;20044;-82
2024/02/17 03:28:11;;;;;;;17.58;11.00;;;;;;;;;;5043740;28;20542;-83
2024/02/17 03:30:38;;;;;;;20.38;10.90;;;;;;;;;;5043785;28;20457;-83
2024/02/17 03:33:05;;;;;;;18.13;10.93;;;;;;;;;;5045210;28;20441;-83
2024/02/17 03:35:32;;;;;;;18.83;11.05;;;;;;;;;;5061858;28;20084;-84
2024/02/17 03:37:59;;;;;;;23.38;11.95;;;;;;;;;;5045483;28;20482;-82
2024/02/17 03:40:26;;;;;;;21.17;12.10;;;;;;;;;;5048890;28;20053;-82
2024/02/17 03:42:53;;;;;;;21.55;12.13;;;;;;;;;;5047800;28;20056;-82
2024/02/17 03:45:19;;;;;;;21.80;12.15;;;;;;;;;;5048789;28;20573;-83
2024/02/17 03:47:46;;;;;;;21.45;11.65;;;;;;;;;;5049442;28;20069;-83
2024/02/17 03:50:13;;;;;;;20.52;13.07;;;;;;;;;;5049938;28;20079;-83
2024/02/17 03:52:39;;;;;;;25.25;13.57;;;;;;;;;;5049142;28;20075;-83
2024/02/17 03:55:06;;;;;;;24.95;14.38;;;;;;;;;;5049462;28;20045;-85
2024/02/17 03:57:33;;;;;;;24.75;13.63;;;;;;;;;;5050748;28;20052;-83
2024/02/17 04:00:00;;;;;;;23.83;13.00;;;;;;;;;;5050307;28;20546;-83
2024/02/17 04:02:26;;;;;;;20.45;11.63;;;;;;;;;;5046535;28;20049;-83
2024/02/17 04:04:53;;;;;;;21.98;12.38;;;;;;;;;;5046454;28;20080;-83
2024/02/17 04:07:20;;;;;;;23.50;11.73;;;;;;;;;;5064720;28;20116;-82
2024/02/17 04:09:47;;;;;;;21.10;11.00;;;;;;;;;;5038617;28;20159;-83
2024/02/17 04:12:14;;;;;;;21.27;12.05;;;;;;;;;;5025702;28;20055;-83
2024/02/17 04:14:43;;;;;;;17.80;11.90;;;;;;;;;;5060498;28;20063;-82
2024/02/17 04:17:10;;;;;;;24.25;13.07;;;;;;;;;;5060187;28;20048;-83
2024/02/17 04:19:36;;;;;;;22.45;12.98;;;;;;;;;;5042773;28;20151;-83
2024/02/17 04:22:03;;;;;;;23.30;12.75;;;;;;;;;;5026488;28;20056;-82
2024/02/17 04:24:30;;;;;;;23.35;12.35;;;;;;;;;;5042432;28;20079;-82
2024/02/17 04:26:57;;;;;;;24.88;13.25;;;;;;;;;;5060660;28;20425;-82
2024/02/17 04:29:23;;;;;;;24.95;13.90;;;;;;;;;;5058170;28;20049;-82
2024/02/17 04:31:50;;;;;;;22.98;13.63;;;;;;;;;;5076514;28;20045;-81
2024/02/17 04:34:17;;;;;;;26.88;13.10;;;;;;;;;;5058907;28;20048;-83
2024/02/17 04:36:44;;;;;;;27.17;13.93;;;;;;;;;;5049695;28;20048;-84
2024/02/17 04:39:13;;;;;;;24.77;14.27;;;;;;;;;;5062651;28;20053;-84
2024/02/17 04:41:40;;;;;;;24.20;13.55;;;;;;;;;;5045065;28;20117;-84
2024/02/17 04:44:06;;;;;;;26.50;14.63;;;;;;;;;;5042738;28;20102;-84
2024/02/17 04:46:33;;;;;;;26.52;14.43;;;;;;;;;;5060774;28;20491;-83
2024/02/17 04:49:00;;;;;;;24.50;13.88;;;;;;;;;;5042321;28;20045;-83
2024/02/17 04:51:27;;;;;;;27.85;14.57;;;;;;;;;;5055572;28;20437;-83
2024/02/17 04:53:54;;;;;;;28.42;14.55;;;;;;;;;;5053204;28;20136;-84
2024/02/17 04:56:21;;;;;;;26.35;15.25;;;;;;;;;;5021259;28;20056;-85
2024/02/17 04:58:48;;;;;;;29.33;15.68;;;;;;;;;;5022006;28;20053;-85
2024/02/17 05:01:14;;;;;;;29.08;16.13;;;;;;;;;;5039603;28;20076;-85
2024/02/17 05:03:41;;;;;;;30.00;16.55;;;;;;;;;;5055376;28;20124;-85
2024/02/17 05:06:11;;;;;;;36.10;17.70;;;;;;;;;;5038085;28;20403;-80
2024/02/17 05:08:38;;;;;;;32.13;16.73;;;;;;;;;;5036421;28;20053;-80
2024/02/17 05:11:17;;;;;;;32.45;17.73;;;;;;;;;;5042103;28;20053;-80
2024/02/17 05:13:49;;;;;;;33.95;18.35;;;;;;;;;;5042564;28;20061;-82
2024/02/17 05:16:16;;;;;;;35.80;18.52;;;;;;;;;;5023649;28;20068;-83
2024/02/17 05:18:43;;;;;;;36.17;18.23;;;;;;;;;;5056621;28;20056;-83
2024/02/17 05:21:10;;;;;;;31.17;16.77;;;;;;;;;;5056506;28;20048;-82
2024/02/17 05:23:37;;;;;;;37.20;18.52;;;;;;;;;;5043685;28;20514;-82
2024/02/17 05:26:05;;;;;;;35.60;17.65;;;;;;;;;;5054662;28;20060;-82
2024/02/17 05:28:32;;;;;;;33.83;18.83;;;;;;;;;;5028190;28;20057;-85
2024/02/17 05:31:00;;;;;;;28.13;15.93;;;;;;;;;;5041675;28;20128;-85
2024/02/17 05:33:27;;;;;;;32.22;16.23;;;;;;;;;;5042578;28;20041;-85
2024/02/17 05:35:54;;;;;;;36.28;16.95;;;;;;;;;;5036976;28;20048;-84
2024/02/17 05:38:21;;;;;;;33.55;17.33;;;;;;;;;;5040009;28;20079;-83
2024/02/17 05:40:48;;;;;;;31.98;17.10;;;;;;;;;;5041548;28;20053;-84
2024/02/17 05:43:14;;;;;;;35.65;17.17;;;;;;;;;;5057083;28;21233;-83
2024/02/17 05:45:41;;;;;;;36.90;17.67;;;;;;;;;;5039807;28;20048;-86
2024/02/17 05:48:08;;;;;;;36.78;17.23;;;;;;;;;;5053925;28;20052;-85
2024/02/17 05:50:35;;;;;;;36.20;17.92;;;;;;;;;;5039764;28;20067;-83
2024/02/17 05:53:01;;;;;;;35.83;17.63;;;;;;;;;;5034008;28;20565;-87
2024/02/17 05:55:28;;;;;;;36.35;17.50;;;;;;;;;;5039590;28;20492;-85
2024/02/17 05:57:55;;;;;;;39.40;17.95;;;;;;;;;;5032640;28;20508;-84
2024/02/17 06:00:22;;;;;;;37.22;17.40;;;;;;;;;;5042291;28;20055;-84
2024/02/17 06:02:48;;;;;;;36.90;17.45;;;;;;;;;;5042343;28;20045;-86
2024/02/17 06:05:15;;;;;;;34.55;16.67;;;;;;;;;;5035039;28;20033;-81
2024/02/17 06:07:42;;;;;;;36.03;17.05;;;;;;;;;;5056865;28;20048;-82
2024/02/17 06:10:09;;;;;;;40.97;17.40;;;;;;;;;;5032976;28;20067;-80
2024/02/17 06:12:36;;;;;;;38.95;18.25;;;;;;;;;;5034249;28;20465;-79
2024/02/17 06:15:03;;;;;;;43.13;18.25;;;;;;;;;;5051070;28;20057;-79
2024/02/17 06:17:29;;;;;;;39.70;17.75;;;;;;;;;;5032574;28;20052;-76
2024/02/17 06:22:41;;;;;;;35.30;16.90;;;;;;;;;;5033904;28;20045;-77
2024/02/17 06:25:08;;;;;;;37.83;15.43;;;;;;;;;;5031800;28;20499;-77
2024/02/17 06:27:35;;;;;;;39.22;17.90;;;;;;;;;;5012812;28;20053;-77
2024/02/17 06:30:01;;;;;;;41.05;18.00;;;;;;;;;;5030910;28;20049;-77
2024/02/17 06:32:28;;;;;;;35.35;15.40;;;;;;;;;;5024327;28;20052;-76
2024/02/17 06:34:55;;;;;;;39.75;16.02;;;;;;;;;;5027486;28;20048;-76
2024/02/17 06:37:23;;;;;;;39.00;16.95;;;;;;;;;;5030762;28;20119;-76
2024/02/17 06:39:49;;;;;;;42.85;17.33;;;;;;;;;;5010963;28;20103;-77
2024/02/17 06:42:17;;;;;;;39.80;18.30;;;;;;;;;;5030517;28;20052;-77
2024/02/17 06:44:44;;;;;;;39.45;17.85;;;;;;;;;;5026589;28;20088;-77
2024/02/17 06:47:11;;;;;;;39.95;16.92;;;;;;;;;;5026320;28;20561;-77
2024/02/17 06:49:38;;;;;;;37.58;17.25;;;;;;;;;;5031017;28;20052;-76
2024/02/17 06:52:05;;;;;;;38.10;17.70;;;;;;;;;;5031091;28;20056;-77
2024/02/17 06:54:31;;;;;;;43.25;17.50;;;;;;;;;;5025915;28;20399;-77
2024/02/17 06:56:58;;;;;;;44.80;18.48;;;;;;;;;;5030875;28;20120;-77
2024/02/17 06:59:25;;;;;;;41.65;17.42;;;;;;;;;;5012616;28;20049;-77
2024/02/17 07:01:51;;;;;;;41.33;17.33;;;;;;;;;;5027025;28;20053;-77
2024/02/17 07:04:18;;;;;;;38.10;16.27;;;;;;;;;;5031431;28;20499;-79
2024/02/17 07:06:45;;;;;;;43.17;17.60;;;;;;;;;;5055472;28;20041;-81
2024/02/17 07:09:14;;;;;;;35.30;15.73;;;;;;;;;;5021170;28;20590;-80
2024/02/17 07:11:41;;;;;;;37.53;16.80;;;;;;;;;;5037371;28;20082;-81
2024/02/17 07:14:08;;;;;;;34.67;15.50;;;;;;;;;;5037408;28;20049;-79
2024/02/17 07:16:35;;;;;;;38.05;16.20;;;;;;;;;;5027314;28;20094;-82
2024/02/17 07:19:01;;;;;;;40.00;16.05;;;;;;;;;;5049030;28;20060;-83
2024/02/17 07:21:28;;;;;;;39.28;15.63;;;;;;;;;;5029825;28;20107;-74
2024/02/17 07:23:55;;;;;;;36.90;14.95;;;;;;;;;;5030048;28;20747;-76
2024/02/17 07:26:22;;;;;;;34.25;15.80;;;;;;;;;;5028511;28;20427;-76
2024/02/17 07:28:49;;;;;;;38.33;16.90;;;;;;;;;;5029638;28;20061;-77
2024/02/17 07:31:16;;;;;;;34.00;15.65;;;;;;;;;;5030889;28;20576;-76
2024/02/17 07:33:49;;;;;;;38.42;17.85;;;;;;;;;;5036253;28;20049;-78
2024/02/17 07:36:16;;;;;;;32.78;15.40;;;;;;;;;;5015134;28;20407;-76
2024/02/17 07:38:43;;;;;;;35.97;16.83;;;;;;;;;;5029267;28;20048;-75
2024/02/17 07:41:10;;;;;;;41.83;17.88;;;;;;;;;;5031353;28;20053;-76
2024/02/17 07:43:37;;;;;;;43.72;17.20;;;;;;;;;;5026474;28;20052;-77
2024/02/17 07:46:04;;;;;;;39.53;17.50;;;;;;;;;;5036823;28;20053;-76
2024/02/17 07:48:31;;;;;;;43.40;17.23;;;;;;;;;;5033436;28;20057;-76
2024/02/17 07:50:58;;;;;;;46.13;19.02;;;;;;;;;;5032095;28;20838;-76
2024/02/17 07:53:27;;;;;;;34.33;16.30;;;;;;;;;;5017348;28;20041;-76
2024/02/17 07:55:54;;;;;;;48.10;21.02;;;;;;;;;;5034131;28;20080;-76
2024/02/17 07:58:22;;;;;;;43.53;18.17;;;;;;;;;;5049945;28;20052;-76
2024/02/17 08:00:49;;;;;;;48.15;19.35;;;;;;;;;;5031951;28;20651;-77
2024/02/17 08:03:17;;;;;;;46.75;18.67;;;;;;;;;;5018134;28;20179;-78
2024/02/17 08:05:44;;;;;;;40.35;19.38;;;;;;;;;;5035419;28;20064;-78
2024/02/17 08:08:11;;;;;;;41.17;18.88;;;;;;;;;;5033270;28;20049;-77
2024/02/17 08:10:37;;;;;;;37.78;19.08;;;;;;;;;;5036158;28;20067;-77
2024/02/17 08:13:04;;;;;;;36.60;17.92;;;;;;;;;;5034755;28;20052;-77
2024/02/17 08:15:31;;;;;;;38.50;18.50;;;;;;;;;;5024255;28;20056;-77
2024/02/17 08:17:57;;;;;;;39.78;18.88;;;;;;;;;;5043451;28;20457;-77
2024/02/17 08:20:24;;;;;;;31.70;16.08;;;;;;;;;;5049506;28;20052;-77
2024/02/17 08:22:51;;;;;;;32.72;16.17;;;;;;;;;;5018097;28;20057;-77
2024/02/17 08:25:18;;;;;;;32.13;15.90;;;;;;;;;;5028563;28;20057;-78
2024/02/17 08:27:45;;;;;;;30.63;16.45;;;;;;;;;;5031749;28;20053;-77
2024/02/17 08:30:12;;;;;;;33.13;16.02;;;;;;;;;;5031726;28;20052;-79
2024/02/17 08:32:39;;;;;;;24.88;14.68;;;;;;;;;;5035068;28;20056;-78
2024/02/17 08:35:06;;;;;;;24.27;12.80;;;;;;;;;;5051698;28;20063;-77
2024/02/17 08:37:32;;;;;;;17.83;10.98;;;;;;;;;;5041494;28;20049;-77
2024/02/17 08:40:08;;;;;;;17.02;10.93;;;;;;;;;;5027227;28;20053;-78
2024/02/17 08:42:35;;;;;;;20.05;12.13;;;;;;;;;;5019257;28;20041;-77
2024/02/17 08:45:03;;;;;;;18.02;11.40;;;;;;;;;;5049211;28;20064;-78
2024/02/17 08:47:29;;;;;;;22.67;11.85;;;;;;;;;;5053686;28;20040;-78
2024/02/17 08:49:56;;;;;;;15.60;11.25;;;;;;;;;;5017304;28;20055;-77
2024/02/17 08:52:23;;;;;;;18.60;11.48;;;;;;;;;;5031704;28;20044;-77
2024/02/17 08:54:50;;;;;;;21.98;12.48;;;;;;;;;;5015763;28;20049;-78
2024/02/17 08:57:17;;;;;;;17.10;10.15;;;;;;;;;;5010557;28;20056;-77
2024/02/17 08:59:44;;;;;;;22.27;11.65;;;;;;;;;;5030656;28;20475;-76
2024/02/17 09:02:16;;;;;;;20.77;12.63;;;;;;;;;;5056527;28;20077;-78
2024/02/17 09:04:48;;;;;;;19.48;11.93;;;;;;;;;;5024836;28;20125;-77
2024/02/17 09:07:14;;;;;;;19.13;11.05;;;;;;;;;;5024889;28;20473;-77
2024/02/17 09:09:41;;;;;;;18.58;12.20;;;;;;;;;;5053764;28;20700;-79
2024/02/17 09:12:08;;;;;;;20.80;11.23;;;;;;;;;;5031669;28;20048;-78
2024/02/17 09:14:35;;;;;;;16.10;10.80;;;;;;;;;;5030570;28;20056;-77
2024/02/17 09:17:02;;;;;;;17.70;11.60;;;;;;;;;;5033912;28;20057;-77
2024/02/17 09:19:31;;;;;;;18.35;11.40;;;;;;;;;;5032803;28;20048;-79
2024/02/17 09:21:59;;;;;;;16.73;10.48;;;;;;;;;;5034679;28;20051;-78
2024/02/17 09:24:26;;;;;;;15.68;9.82;;;;;;;;;;5033642;28;20491;-77
2024/02/17 09:26:55;;;;;;;16.60;10.10;;;;;;;;;;5032768;28;20048;-77
2024/02/17 09:29:22;;;;;;;15.10;9.98;;;;;;;;;;5016932;28;20041;-77
2024/02/17 09:31:48;;;;;;;17.52;11.07;;;;;;;;;;5014782;28;20053;-78
2024/02/17 09:34:18;;;;;;;15.30;9.85;;;;;;;;;;5051536;28;20041;-79
2024/02/17 09:36:47;;;;;;;14.55;9.27;;;;;;;;;;5034003;28;20055;-78
2024/02/17 09:39:14;;;;;;;14.88;9.65;;;;;;;;;;5017398;28;20085;-77
2024/02/17 09:41:42;;;;;;;15.65;9.77;;;;;;;;;;5014684;28;20047;-78
2024/02/17 09:44:11;;;;;;;12.13;8.95;;;;;;;;;;5015457;28;20044;-77
2024/02/17 09:46:38;;;;;;;14.23;8.48;;;;;;;;;;5028248;28;20075;-75
2024/02/17 09:49:06;;;;;;;15.13;9.35;;;;;;;;;;5016194;28;20055;-77
2024/02/17 09:51:35;;;;;;;15.63;9.93;;;;;;;;;;5032367;28;20188;-77
2024/02/17 09:54:07;;;;;;;15.98;9.65;;;;;;;;;;5031459;28;20137;-77
2024/02/17 09:56:34;;;;;;;16.25;9.30;;;;;;;;;;5016043;28;20474;-76
2024/02/17 09:59:01;;;;;;;13.25;9.60;;;;;;;;;;5048108;28;20106;-77
2024/02/17 10:01:30;;;;;;;14.70;9.90;;;;;;;;;;5031134;28;20111;-77
2024/02/17 10:03:57;;;;;;;15.75;9.82;;;;;;;;;;5049634;28;20118;-77
2024/02/17 10:06:24;;;;;;;17.90;9.90;;;;;;;;;;5030735;28;20514;-77
2024/02/17 10:08:51;;;;;;;18.60;10.68;;;;;;;;;;5011721;28;20158;-76
2024/02/17 10:11:18;;;;;;;16.88;11.07;;;;;;;;;;5010800;28;20128;-77
2024/02/17 10:13:48;;;;;;;16.08;10.45;;;;;;;;;;5030002;28;20490;-76
2024/02/17 10:16:15;;;;;;;16.45;10.50;;;;;;;;;;5016499;28;20078;-76
2024/02/17 10:18:42;;;;;;;15.40;9.65;;;;;;;;;;5031152;28;20049;-77
2024/02/17 10:21:10;;;;;;;19.85;11.60;;;;;;;;;;5031402;28;20515;-77
2024/02/17 10:23:37;;;;;;;19.63;10.82;;;;;;;;;;5014996;28;20072;-75
2024/02/17 10:26:04;;;;;;;15.82;10.75;;;;;;;;;;5028758;28;20498;-76
2024/02/17 10:28:31;;;;;;;13.90;9.65;;;;;;;;;;5015295;28;20119;-76
2024/02/17 10:31:03;;;;;;;12.15;9.13;;;;;;;;;;5013442;28;20118;-77
2024/02/17 10:33:30;;;;;;;12.80;8.75;;;;;;;;;;5047431;28;20045;-77
2024/02/17 10:35:59;;;;;;;12.07;9.63;;;;;;;;;;5011297;28;20049;-76
2024/02/17 10:38:26;;;;;;;14.27;9.52;;;;;;;;;;5030162;28;20557;-76
2024/02/17 10:40:53;;;;;;;14.77;9.02;;;;;;;;;;5013442;28;20150;-76
2024/02/17 10:43:20;;;;;;;12.48;8.90;;;;;;;;;;5030321;28;20446;-76
2024/02/17 10:45:47;;;;;;;11.13;7.85;;;;;;;;;;5015186;28;20118;-76
2024/02/17 10:48:14;;;;;;;16.85;8.20;;;;;;;;;;5013784;28;20102;-76
2024/02/17 10:50:44;;;;;;;11.32;8.40;;;;;;;;;;5014747;28;20053;-76
2024/02/17 10:53:27;;;;;;;13.98;8.05;;;;;;;;;;5030116;28;20083;-76
2024/02/17 10:55:58;;;;;;;11.57;7.57;;;;;;;;;;5016286;28;20084;-75
2024/02/17 10:58:25;;;;;;;15.63;8.63;;;;;;;;;;5044452;28;20678;-76
2024/02/17 11:00:52;;;;;;;15.10;7.63;;;;;;;;;;5028743;28;20057;-77
2024/02/17 11:03:23;;;;;;;13.65;9.38;;;;;;;;;;5046451;28;20053;-76
2024/02/17 11:05:53;;;;;;;12.77;9.27;;;;;;;;;;5012355;28;20044;-76
2024/02/17 11:08:19;;;;;;;11.38;8.35;;;;;;;;;;5026333;28;20562;-76
2024/02/17 11:10:46;;;;;;;12.80;8.30;;;;;;;;;;5049146;28;20053;-75
2024/02/17 11:13:21;;;;;;;13.45;7.80;;;;;;;;;;5046986;28;20095;-76
2024/02/17 11:16:04;;;;;;;12.15;7.40;;;;;;;;;;5031255;28;20568;-76
2024/02/17 11:18:39;;;;;;;10.68;8.07;;;;;;;;;;5027974;28;20111;-76
2024/02/17 11:21:06;;;;;;;10.63;8.50;;;;;;;;;;5033719;28;20049;-75
2024/02/17 11:23:34;;;;;;;10.82;7.53;;;;;;;;;;5030782;28;20466;-75
2024/02/17 11:26:01;;;;;;;8.98;7.00;;;;;;;;;;5019862;28;20053;-75
2024/02/17 11:28:28;;;;;;;13.75;8.68;;;;;;;;;;5030771;28;20056;-75
2024/02/17 11:30:56;;;;;;;12.68;8.73;;;;;;;;;;5018039;28;20045;-75
2024/02/17 11:33:26;;;;;;;11.57;8.35;;;;;;;;;;5030062;28;20046;-75
2024/02/17 11:35:54;;;;;;;10.95;8.27;;;;;;;;;;5019119;28;20049;-76
2024/02/17 11:38:25;;;;;;;12.65;7.88;;;;;;;;;;5050718;28;20052;-76
2024/02/17 11:40:54;;;;;;;10.98;7.28;;;;;;;;;;5035224;28;20116;-76
2024/02/17 11:43:39;;;;;;;13.38;7.57;;;;;;;;;;5029824;28;20080;-76
2024/02/17 11:46:06;;;;;;;10.10;7.97;;;;;;;;;;5014823;28;20210;-76
2024/02/17 11:48:33;;;;;;;9.75;7.45;;;;;;;;;;5031155;28;20520;-76
2024/02/17 11:51:04;;;;;;;12.02;7.55;;;;;;;;;;5051679;28;20556;-76
2024/02/17 11:53:31;;;;;;;11.57;7.30;;;;;;;;;;5033737;28;20424;-75
2024/02/17 11:55:59;;;;;;;9.30;6.70;;;;;;;;;;5052838;28;20049;-76
2024/02/17 11:58:26;;;;;;;10.65;6.60;;;;;;;;;;5033627;28;20040;-76
2024/02/17 12:00:56;;;;;;;10.20;6.68;;;;;;;;;;5014026;28;20442;-76
2024/02/17 12:03:27;;;;;;;13.27;7.38;;;;;;;;;;5012774;28;20491;-76
2024/02/17 12:05:56;;;;;;;10.10;7.47;;;;;;;;;;5049290;28;20120;-76
2024/02/17 12:08:25;;;;;;;10.27;6.75;;;;;;;;;;5035014;28;20041;-76
2024/02/17 12:10:51;;;;;;;11.23;6.30;;;;;;;;;;5033133;28;20060;-76
2024/02/17 12:13:19;;;;;;;9.30;5.72;;;;;;;;;;5034551;28;20144;-76
2024/02/17 12:15:46;;;;;;;8.25;4.53;;;;;;;;;;5013018;28;20045;-76
2024/02/17 12:18:13;;;;;;;6.60;5.07;;;;;;;;;;5015992;28;20045;-76
2024/02/17 12:20:40;;;;;;;5.82;4.32;;;;;;;;;;5034439;28;20430;-76
2024/02/17 12:23:09;;;;;;;5.20;4.32;;;;;;;;;;5014798;28;20494;-76
2024/02/17 12:25:39;;;;;;;6.75;4.18;;;;;;;;;;5017145;28;20477;-77
2024/02/17 12:28:09;;;;;;;4.88;3.88;;;;;;;;;;5029314;28;20522;-77
2024/02/17 12:30:45;;;;;;;4.72;4.05;;;;;;;;;;5028007;28;20050;-77
2024/02/17 12:33:11;;;;;;;6.93;4.35;;;;;;;;;;5032738;28;20041;-77
2024/02/17 12:35:46;;;;;;;7.35;4.53;;;;;;;;;;5017563;28;20049;-77
2024/02/17 12:38:13;;;;;;;8.70;5.13;;;;;;;;;;5048903;28;20049;-78
2024/02/17 12:40:45;;;;;;;7.55;4.82;;;;;;;;;;5018588;28;20057;-78
2024/02/17 12:43:21;;;;;;;6.63;4.47;;;;;;;;;;5033247;28;20492;-78
2024/02/17 12:45:48;;;;;;;7.43;5.53;;;;;;;;;;5029480;28;20049;-77
2024/02/17 12:48:19;;;;;;;8.45;4.60;;;;;;;;;;5034957;28;20045;-77
2024/02/17 12:50:46;;;;;;;6.43;5.22;;;;;;;;;;5032170;28;20041;-76
2024/02/17 12:53:18;;;;;;;6.05;4.72;;;;;;;;;;5034795;28;20466;-77
2024/02/17 12:55:45;;;;;;;11.30;4.78;;;;;;;;;;5016260;28;20522;-76
2024/02/17 12:58:12;;;;;;;5.50;4.40;;;;;;;;;;5016813;28;20048;-77
2024/02/17 13:00:39;;;;;;;8.25;4.85;;;;;;;;;;5032434;28;20218;-76
2024/02/17 13:03:09;;;;;;;14.25;6.80;;;;;;;;;;5032976;28;20049;-76
2024/02/17 13:05:36;;;;;;;12.77;6.40;;;;;;;;;;5030574;28;20069;-77
2024/02/17 13:08:03;;;;;;;9.35;6.28;;;;;;;;;;5033774;28;20041;-77
2024/02/17 13:10:31;;;;;;;9.90;5.82;;;;;;;;;;5013562;28;20066;-76
2024/02/17 13:12:58;;;;;;;9.82;6.10;;;;;;;;;;5017232;28;20597;-77
2024/02/17 13:15:25;;;;;;;7.63;6.50;;;;;;;;;;5032666;28;20033;-76
2024/02/17 13:17:51;;;;;;;10.85;6.20;;;;;;;;;;5033764;28;20047;-76
2024/02/17 13:20:18;;;;;;;7.60;5.35;;;;;;;;;;5034441;28;20510;-76
2024/02/17 13:22:45;;;;;;;8.65;5.90;;;;;;;;;;5015422;28;20418;-77
2024/02/17 13:25:12;;;;;;;6.47;4.82;;;;;;;;;;5032638;28;20055;-77
2024/02/17 13:27:38;;;;;;;7.07;4.50;;;;;;;;;;5032888;28;20103;-77
2024/02/17 13:30:09;;;;;;;6.20;3.90;;;;;;;;;;5021429;28;20511;-77
2024/02/17 13:32:37;;;;;;;5.13;4.15;;;;;;;;;;5052349;28;20053;-77
2024/02/17 13:35:04;;;;;;;7.90;3.70;;;;;;;;;;5046535;28;20037;-75
2024/02/17 13:37:31;;;;;;;9.55;3.67;;;;;;;;;;5057506;28;20053;-74
2024/02/17 13:39:58;;;;;;;4.35;3.30;;;;;;;;;;5041093;28;20055;-75
2024/02/17 13:42:25;;;;;;;5.22;3.30;;;;;;;;;;5060521;28;20045;-76
2024/02/17 13:44:52;;;;;;;3.88;3.10;;;;;;;;;;5028177;28;20036;-76
2024/02/17 13:47:18;;;;;;;4.47;3.42;;;;;;;;;;5033493;28;20044;-77
2024/02/17 13:49:45;;;;;;;8.38;3.22;;;;;;;;;;5028870;28;20049;-77
2024/02/17 13:52:12;;;;;;;5.18;3.05;;;;;;;;;;5032424;28;20073;-76
2024/02/17 13:54:38;;;;;;;5.20;2.45;;;;;;;;;;5026033;28;20049;-77
2024/02/17 13:57:05;;;;;;;3.17;2.22;;;;;;;;;;5032180;28;20045;-76
2024/02/17 13:59:36;;;;;;;2.97;2.53;;;;;;;;;;5029931;28;20045;-77
2024/02/17 14:02:03;;;;;;;3.78;2.47;;;;;;;;;;5049824;28;20644;-77
2024/02/17 14:04:30;;;;;;;4.05;2.40;;;;;;;;;;5012161;28;20110;-77
2024/02/17 14:06:57;;;;;;;3.60;3.10;;;;;;;;;;5050152;28;20051;-76
2024/02/17 14:09:23;;;;;;;4.85;2.67;;;;;;;;;;5041361;28;20057;-77
2024/02/17 14:11:50;;;;;;;6.35;3.38;;;;;;;;;;5032745;28;20045;-76
2024/02/17 14:14:17;;;;;;;6.70;2.70;;;;;;;;;;5016369;28;20049;-77
2024/02/17 14:16:45;;;;;;;3.28;2.72;;;;;;;;;;5032916;28;20128;-77
2024/02/17 14:19:12;;;;;;;7.97;4.68;;;;;;;;;;5015753;28;20053;-76
2024/02/17 14:21:39;;;;;;;6.80;4.70;;;;;;;;;;5045955;28;20507;-77
2024/02/17 14:24:06;;;;;;;5.95;4.13;;;;;;;;;;5031620;28;20077;-76
2024/02/17 14:26:34;;;;;;;7.85;4.78;;;;;;;;;;5048929;28;20525;-76
2024/02/17 14:29:01;;;;;;;4.43;4.00;;;;;;;;;;5034488;28;20083;-77
2024/02/17 14:31:27;;;;;;;4.30;3.80;;;;;;;;;;5033788;28;20749;-77
2024/02/17 14:33:54;;;;;;;7.30;3.90;;;;;;;;;;5033359;28;20048;-76